Portada
METAR-TAF:

METAR-TAF

Aeroports :

Kitakyushu, Japó

latitud: 33-50N, longitud: 130-57E, altitud: 3 m

Observació

L'informe es va fer fa 54 minuts, a les 13:00 UTC
Vent 5 kt del Est/Nord-Est
Temperatura 21°C
Humitat 88%
Pressió 1005 hPa
Visibilitat: 8000 m
Escasses núvols a una alçada de 3000 ft
Núvols disperses a una alçada de 4000 ft
Cel ennuvolat

METAR: RJFR 031300Z 07005KT 8000 FEW030 SCT040 BKN/// 21/19 Q1005

Hora: 22:54 (13:54 UTC)

Pronòstic

L'informe es va fer fa 2 hores i 46 minuts, a les 11:08 UTC
Pronòstic vàlid del 03 a les 12 UTC al 04 a les 18 UTC
Vent 3 kt del Est/Nord-Est
Visibilitat: 8000 m
Escasses núvols a una alçada de 1500 ft

TAF: RJFR 031108Z 0312/0418 06003KT 8000 FEW015

Observacions i pronòstics meteorològics de més de 4000 aeroports (METAR i TAF).

Les estacions disponibles són els punts grocs i vermells al mapa.

Posi el ratolí al punt desitjat per veure el nom de l'estació.

Feu clic per veure les observacions i els pronòstics meteorològics.

Per canviar el mapa: feu clic els botons verds amb una creu de color negre per apropar; al botó verd amb un guió per allunyar la imatge; o en les fletxes verdes per a mapes adjacents.


METAR-TAF: